createdAt,value
2022-12-04T00:02:45.161Z,32.90
2022-12-04T00:07:44.308Z,29.87
2022-12-04T00:12:44.534Z,29.50
2022-12-04T00:17:43.386Z,43.03
2022-12-04T00:22:42.280Z,28.25
2022-12-04T00:27:41.261Z,25.83
2022-12-04T00:32:41.487Z,29.80
2022-12-04T00:37:40.385Z,29.17
2022-12-04T00:42:39.268Z,28.83
2022-12-04T00:47:38.297Z,32.90
2022-12-04T00:52:38.560Z,35.13
2022-12-04T00:57:37.466Z,32.20
2022-12-04T01:02:36.389Z,34.53
2022-12-04T01:07:35.382Z,30.60
2022-12-04T01:12:37.017Z,31.88
2022-12-04T01:17:35.896Z,34.10
2022-12-04T01:22:34.867Z,31.42
2022-12-04T01:27:34.406Z,29.15
2022-12-04T01:32:34.728Z,29.55
2022-12-04T01:37:33.863Z,30.23
2022-12-04T01:42:32.930Z,30.45
2022-12-04T01:47:31.806Z,32.00
2022-12-04T01:52:32.568Z,30.00
2022-12-04T01:57:33.837Z,32.10
2022-12-04T02:02:36.827Z,30.65
2022-12-04T02:07:39.474Z,33.13
2022-12-04T02:12:48.802Z,34.85
2022-12-04T02:17:56.200Z,32.72
2022-12-04T02:23:24.448Z,32.00
2022-12-04T02:28:31.169Z,33.67
2022-12-04T02:33:35.605Z,36.40
2022-12-04T02:38:38.754Z,30.40
2022-12-04T02:43:43.939Z,33.53
2022-12-04T02:48:45.785Z,30.60
2022-12-04T02:53:49.048Z,35.15
2022-12-04T02:58:54.414Z,30.17
2022-12-04T03:03:56.639Z,30.30
2022-12-04T03:09:02.454Z,30.10
2022-12-04T03:14:10.241Z,37.47
2022-12-04T03:19:12.049Z,29.50
2022-12-04T03:24:16.328Z,30.42
2022-12-04T03:29:21.073Z,27.00
2022-12-04T03:34:28.590Z,28.25
2022-12-04T03:39:35.807Z,30.70
2022-12-04T03:44:42.495Z,30.40
2022-12-04T03:49:47.029Z,29.27
2022-12-04T03:54:51.174Z,25.40
2022-12-04T03:59:56.842Z,29.45
2022-12-04T04:04:59.624Z,26.20
2022-12-04T04:10:03.753Z,27.70
2022-12-04T04:15:27.535Z,25.42
2022-12-04T04:20:55.754Z,23.60
2022-12-04T04:25:56.553Z,25.13
2022-12-04T04:31:05.578Z,20.73
2022-12-04T04:36:12.017Z,19.42
2022-12-04T04:41:17.315Z,22.33
2022-12-04T04:46:22.511Z,20.45
2022-12-04T04:51:22.306Z,20.27
2022-12-04T04:56:22.289Z,24.15
2022-12-04T05:01:25.791Z,18.95
2022-12-04T05:06:24.724Z,19.27
2022-12-04T05:11:23.520Z,19.48
2022-12-04T05:16:23.988Z,22.70
2022-12-04T05:21:22.971Z,18.85
2022-12-04T05:26:21.829Z,22.90
2022-12-04T05:31:20.710Z,19.60
2022-12-04T05:36:20.959Z,19.90
2022-12-04T05:41:19.770Z,19.05
2022-12-04T05:46:18.673Z,21.13
2022-12-04T05:51:20.173Z,21.08
2022-12-04T05:56:18.952Z,21.35
2022-12-04T06:01:21.143Z,24.52
2022-12-04T06:06:22.968Z,21.02
2022-12-04T06:11:24.539Z,24.65
2022-12-04T06:16:26.385Z,23.08
2022-12-04T06:21:31.368Z,21.58
2022-12-04T06:26:30.585Z,28.55
2022-12-04T06:31:31.214Z,26.70
2022-12-04T06:36:32.081Z,30.83
2022-12-04T06:41:31.582Z,23.55
2022-12-04T06:46:32.710Z,28.40
2022-12-04T06:51:35.151Z,24.42
2022-12-04T06:56:35.386Z,24.97
2022-12-04T07:01:36.106Z,22.58
2022-12-04T07:06:37.810Z,24.13
2022-12-04T07:11:36.986Z,25.83
2022-12-04T07:16:40.846Z,23.98
2022-12-04T07:21:42.382Z,29.10
2022-12-04T07:26:41.483Z,28.75
2022-12-04T07:31:40.648Z,21.75
2022-12-04T07:36:41.818Z,21.00
2022-12-04T07:41:40.619Z,23.10
2022-12-04T07:46:40.525Z,28.73
2022-12-04T07:51:39.380Z,26.88
2022-12-04T07:56:39.506Z,24.98
2022-12-04T08:01:38.440Z,26.85
2022-12-04T08:06:37.383Z,30.17
2022-12-04T08:11:36.311Z,27.60
2022-12-04T08:16:36.767Z,31.13
2022-12-04T08:21:35.705Z,30.08
2022-12-04T08:26:34.861Z,34.50
2022-12-04T08:31:36.905Z,33.13
2022-12-04T08:36:36.350Z,36.35
2022-12-04T08:41:35.393Z,30.85
2022-12-04T08:46:34.367Z,30.42
2022-12-04T08:51:36.106Z,29.25
2022-12-04T08:56:36.195Z,33.30
2022-12-04T09:01:35.086Z,34.60
2022-12-04T09:06:35.467Z,34.13
2022-12-04T09:11:34.291Z,30.70
2022-12-04T09:16:33.452Z,30.42
2022-12-04T09:21:32.284Z,34.22
2022-12-04T09:26:33.885Z,34.63
2022-12-04T09:31:33.570Z,29.13
2022-12-04T09:36:32.457Z,25.35
2022-12-04T09:41:57.586Z,24.63
2022-12-04T09:47:02.169Z,22.75
2022-12-04T09:52:05.000Z,25.27
2022-12-04T09:57:13.555Z,23.97
2022-12-04T10:02:33.008Z,22.63
2022-12-04T10:07:38.206Z,19.30
2022-12-04T10:12:48.746Z,21.20
2022-12-04T10:18:11.696Z,13.98
2022-12-04T10:23:22.379Z,11.83
2022-12-04T10:28:30.089Z,13.48
2022-12-04T10:33:36.641Z,11.57
2022-12-04T10:38:43.590Z,12.30
2022-12-04T10:43:46.165Z,12.82
2022-12-04T10:48:47.809Z,11.03
2022-12-04T10:53:49.541Z,12.10
2022-12-04T10:59:03.703Z,11.10
2022-12-04T11:04:08.554Z,10.45
2022-12-04T11:09:07.726Z,12.63
2022-12-04T11:14:15.264Z,11.73
2022-12-04T11:19:25.739Z,9.82
2022-12-04T11:24:27.764Z,10.63
2022-12-04T11:29:33.427Z,8.35
2022-12-04T11:34:36.844Z,6.90
2022-12-04T11:39:39.840Z,12.45
2022-12-04T11:44:40.337Z,12.70
2022-12-04T11:49:43.711Z,10.73
2022-12-04T12:00:03.391Z,12.48
2022-12-04T12:05:23.345Z,9.82
2022-12-04T12:10:32.008Z,11.82
2022-12-04T12:15:42.974Z,10.63
2022-12-04T12:20:47.542Z,11.95
2022-12-04T12:25:54.857Z,12.52
2022-12-04T12:31:08.707Z,11.13
2022-12-04T12:36:10.753Z,11.52
2022-12-04T12:41:14.387Z,11.57
2022-12-04T12:46:22.912Z,10.90
2022-12-04T12:51:33.570Z,10.48
2022-12-04T12:56:38.573Z,13.05
2022-12-04T13:01:47.075Z,11.65
2022-12-04T13:06:50.184Z,22.52
2022-12-04T13:11:52.197Z,16.38
2022-12-04T13:16:55.433Z,14.10
2022-12-04T13:22:08.157Z,14.65
2022-12-04T13:27:14.979Z,12.17
2022-12-04T13:32:41.543Z,13.32
2022-12-04T13:38:07.280Z,18.30
2022-12-04T13:43:36.442Z,18.50
2022-12-04T13:48:41.237Z,15.10
2022-12-04T13:53:40.506Z,15.98
2022-12-04T13:58:39.519Z,17.83
2022-12-04T14:03:49.172Z,15.95
2022-12-04T14:08:48.080Z,16.48
2022-12-04T14:13:52.155Z,17.52
2022-12-04T14:18:55.768Z,14.10
2022-12-04T14:28:55.094Z,19.70
2022-12-04T14:34:00.341Z,18.77
2022-12-04T14:39:27.664Z,18.20
2022-12-04T14:44:30.112Z,21.42
2022-12-04T14:49:40.480Z,20.02
2022-12-04T14:54:50.099Z,21.15
2022-12-04T14:59:51.092Z,27.10
2022-12-04T15:04:52.423Z,29.40
2022-12-04T15:10:13.742Z,30.23
2022-12-04T15:15:19.631Z,31.83
2022-12-04T15:20:21.749Z,25.25
2022-12-04T15:25:23.892Z,31.70
2022-12-04T15:30:25.372Z,26.80
2022-12-04T15:35:28.965Z,23.40
2022-12-04T15:45:51.589Z,24.10
2022-12-04T15:50:59.472Z,24.60
2022-12-04T15:56:02.405Z,26.05
2022-12-04T16:01:04.742Z,23.80
2022-12-04T16:06:08.359Z,28.17
2022-12-04T16:16:09.487Z,27.00
2022-12-04T16:21:15.391Z,27.58
2022-12-04T16:26:15.617Z,30.70
2022-12-04T16:31:15.254Z,24.00
2022-12-04T16:41:42.181Z,29.15
2022-12-04T16:46:43.224Z,52.42
2022-12-04T16:51:56.358Z,26.25
2022-12-04T16:56:56.372Z,25.50
2022-12-04T17:02:43.380Z,26.45
2022-12-04T17:07:53.534Z,28.50
2022-12-04T17:12:56.931Z,28.45
2022-12-04T17:23:20.956Z,27.58
2022-12-04T17:28:23.735Z,26.00
2022-12-04T17:33:23.983Z,28.60
2022-12-04T17:38:28.866Z,26.65
2022-12-04T17:43:36.256Z,28.60
2022-12-04T17:48:35.174Z,22.52
2022-12-04T17:53:35.659Z,26.73
2022-12-04T17:58:35.980Z,27.05
2022-12-04T18:03:35.698Z,31.38
2022-12-04T18:08:35.912Z,25.10
2022-12-04T18:13:35.657Z,27.70
2022-12-04T18:18:46.796Z,23.25
2022-12-04T18:23:47.157Z,28.05
2022-12-04T18:28:46.780Z,25.25
2022-12-04T18:33:46.713Z,22.92
2022-12-04T18:38:47.590Z,25.17
2022-12-04T18:43:52.338Z,23.55
2022-12-04T18:48:54.381Z,22.33
2022-12-04T18:53:57.272Z,20.73
2022-12-04T18:59:00.176Z,25.52
2022-12-04T19:04:00.689Z,25.67
2022-12-04T19:09:02.856Z,21.67
2022-12-04T19:14:06.607Z,23.98
2022-12-04T19:19:09.384Z,27.70
2022-12-04T19:24:11.125Z,26.73
2022-12-04T19:29:13.034Z,24.38
2022-12-04T19:34:11.939Z,25.90
2022-12-04T19:39:12.716Z,26.70
2022-12-04T19:44:46.619Z,25.35
2022-12-04T19:49:30.785Z,26.33
2022-12-04T19:54:31.542Z,27.95
2022-12-04T19:59:34.711Z,25.02
2022-12-04T20:04:36.161Z,26.25
2022-12-04T20:09:36.657Z,24.98
2022-12-04T20:14:35.665Z,22.40
2022-12-04T20:19:34.712Z,21.13
2022-12-04T20:24:33.785Z,20.58
2022-12-04T20:29:34.045Z,18.27
2022-12-04T20:34:33.352Z,20.42
2022-12-04T20:39:32.324Z,16.63
2022-12-04T20:44:35.059Z,17.90
2022-12-04T20:49:34.100Z,18.87
2022-12-04T20:54:40.778Z,17.58
2022-12-04T20:59:44.333Z,15.02
2022-12-04T21:04:43.184Z,17.07
2022-12-04T21:09:42.081Z,15.57
2022-12-04T21:15:00.416Z,19.08
2022-12-04T21:20:02.836Z,12.98
2022-12-04T21:25:08.714Z,11.95
2022-12-04T21:30:29.161Z,11.80
2022-12-04T21:35:28.429Z,12.50
2022-12-04T21:41:01.294Z,9.30
2022-12-04T21:46:34.334Z,9.18
2022-12-04T21:51:56.393Z,8.90
2022-12-04T21:56:53.404Z,13.13
2022-12-04T22:01:54.243Z,10.35
2022-12-04T22:06:53.342Z,15.93
2022-12-04T22:11:52.367Z,11.30
2022-12-04T22:16:54.364Z,9.52
2022-12-04T22:21:53.365Z,13.07
2022-12-04T22:26:52.272Z,11.07
2022-12-04T22:31:51.426Z,11.48
2022-12-04T22:36:52.415Z,14.65
2022-12-04T22:41:51.466Z,9.25
2022-12-04T22:46:50.507Z,9.45
2022-12-04T22:51:49.516Z,11.05
2022-12-04T22:56:49.938Z,8.85
2022-12-04T23:01:48.953Z,8.02
2022-12-04T23:06:50.103Z,6.50
2022-12-04T23:11:54.030Z,7.72
2022-12-04T23:16:53.185Z,5.82
2022-12-04T23:21:57.032Z,7.50
2022-12-04T23:26:57.784Z,5.22
2022-12-04T23:31:56.755Z,5.70
2022-12-04T23:36:55.632Z,7.18
2022-12-04T23:41:54.531Z,5.88
2022-12-04T23:46:54.811Z,4.97
2022-12-04T23:51:53.864Z,6.13
2022-12-04T23:56:52.955Z,7.03
